sensor_id;sensor_type;location;lat;lon;timestamp;P1;durP1;ratioP1;P2;durP2;ratioP2
70545;SDS011;58098;51.680;5.134;2024-03-23T00:53:41;22.20;;;7.35;;
70545;SDS011;58098;51.680;5.134;2024-03-23T00:56:06;23.53;;;7.00;;
70545;SDS011;58098;51.680;5.134;2024-03-23T00:58:31;30.67;;;7.30;;
70545;SDS011;58098;51.680;5.134;2024-03-23T01:00:57;25.57;;;7.13;;
70545;SDS011;58098;51.680;5.134;2024-03-23T01:03:22;24.87;;;7.27;;
70545;SDS011;58098;51.680;5.134;2024-03-23T01:05:47;26.97;;;7.53;;
70545;SDS011;58098;51.680;5.134;2024-03-23T01:08:13;27.35;;;7.80;;
70545;SDS011;58098;51.680;5.134;2024-03-23T01:10:39;24.60;;;7.95;;
70545;SDS011;58098;51.680;5.134;2024-03-23T01:13:04;25.63;;;7.43;;
70545;SDS011;58098;51.680;5.134;2024-03-23T01:15:30;25.50;;;7.33;;
70545;SDS011;58098;51.680;5.134;2024-03-23T01:17:55;26.57;;;7.50;;
70545;SDS011;58098;51.680;5.134;2024-03-23T01:20:20;27.03;;;6.77;;
70545;SDS011;58098;51.680;5.134;2024-03-23T01:22:46;22.73;;;7.00;;
70545;SDS011;58098;51.680;5.134;2024-03-23T01:25:11;19.00;;;7.17;;
70545;SDS011;58098;51.680;5.134;2024-03-23T01:27:36;25.08;;;7.68;;
70545;SDS011;58098;51.680;5.134;2024-03-23T01:30:02;26.37;;;7.63;;
70545;SDS011;58098;51.680;5.134;2024-03-23T01:32:27;17.63;;;6.70;;
70545;SDS011;58098;51.680;5.134;2024-03-23T01:34:52;17.17;;;6.47;;
70545;SDS011;58098;51.680;5.134;2024-03-23T01:37:18;22.13;;;7.00;;
70545;SDS011;58098;51.680;5.134;2024-03-23T01:39:43;19.57;;;6.90;;
70545;SDS011;58098;51.680;5.134;2024-03-23T01:42:08;27.17;;;7.07;;
70545;SDS011;58098;51.680;5.134;2024-03-23T01:44:34;22.10;;;6.67;;
70545;SDS011;58098;51.680;5.134;2024-03-23T01:46:59;20.60;;;6.63;;
70545;SDS011;58098;51.680;5.134;2024-03-23T01:49:24;23.87;;;6.80;;
70545;SDS011;58098;51.680;5.134;2024-03-23T01:51:50;23.80;;;6.50;;
70545;SDS011;58098;51.680;5.134;2024-03-23T01:54:15;26.90;;;6.80;;
70545;SDS011;58098;51.680;5.134;2024-03-23T01:56:41;21.52;;;6.75;;
70545;SDS011;58098;51.680;5.134;2024-03-23T01:59:06;22.23;;;6.57;;
70545;SDS011;58098;51.680;5.134;2024-03-23T02:01:32;20.47;;;5.57;;
70545;SDS011;58098;51.680;5.134;2024-03-23T02:04:01;21.98;;;6.15;;
70545;SDS011;58098;51.680;5.134;2024-03-23T02:06:26;20.23;;;6.43;;
70545;SDS011;58098;51.680;5.134;2024-03-23T02:08:52;24.27;;;6.70;;
70545;SDS011;58098;51.680;5.134;2024-03-23T02:11:18;29.65;;;6.43;;
70545;SDS011;58098;51.680;5.134;2024-03-23T02:13:43;19.03;;;6.13;;
70545;SDS011;58098;51.680;5.134;2024-03-23T02:16:09;22.60;;;5.93;;
70545;SDS011;58098;51.680;5.134;2024-03-23T02:18:34;19.53;;;5.40;;
70545;SDS011;58098;51.680;5.134;2024-03-23T02:21:00;25.75;;;5.68;;
70545;SDS011;58098;51.680;5.134;2024-03-23T02:23:25;21.30;;;5.20;;
70545;SDS011;58098;51.680;5.134;2024-03-23T02:25:51;21.50;;;4.93;;
70545;SDS011;58098;51.680;5.134;2024-03-23T02:28:18;23.80;;;4.53;;
70545;SDS011;58098;51.680;5.134;2024-03-23T02:30:43;20.10;;;4.20;;
70545;SDS011;58098;51.680;5.134;2024-03-23T02:33:09;16.53;;;4.43;;
70545;SDS011;58098;51.680;5.134;2024-03-23T02:35:34;25.33;;;4.83;;
70545;SDS011;58098;51.680;5.134;2024-03-23T02:37:59;17.57;;;4.23;;
70545;SDS011;58098;51.680;5.134;2024-03-23T02:40:25;18.60;;;4.27;;
70545;SDS011;58098;51.680;5.134;2024-03-23T02:42:51;12.75;;;4.55;;
70545;SDS011;58098;51.680;5.134;2024-03-23T02:45:17;23.75;;;4.90;;
70545;SDS011;58098;51.680;5.134;2024-03-23T02:47:43;15.50;;;4.77;;
70545;SDS011;58098;51.680;5.134;2024-03-23T02:50:08;19.70;;;4.87;;
70545;SDS011;58098;51.680;5.134;2024-03-23T02:52:34;23.13;;;5.05;;
70545;SDS011;58098;51.680;5.134;2024-03-23T02:55:00;18.83;;;3.80;;
70545;SDS011;58098;51.680;5.134;2024-03-23T02:57:27;19.83;;;4.33;;
70545;SDS011;58098;51.680;5.134;2024-03-23T02:59:52;21.45;;;4.57;;
70545;SDS011;58098;51.680;5.134;2024-03-23T03:02:17;21.17;;;5.07;;
70545;SDS011;58098;51.680;5.134;2024-03-23T03:04:43;15.53;;;4.60;;
70545;SDS011;58098;51.680;5.134;2024-03-23T03:07:08;17.57;;;4.70;;
70545;SDS011;58098;51.680;5.134;2024-03-23T03:09:33;23.40;;;5.27;;
70545;SDS011;58098;51.680;5.134;2024-03-23T03:12:00;17.63;;;4.10;;
70545;SDS011;58098;51.680;5.134;2024-03-23T03:14:26;17.80;;;4.60;;
70545;SDS011;58098;51.680;5.134;2024-03-23T03:16:52;14.13;;;4.38;;
70545;SDS011;58098;51.680;5.134;2024-03-23T03:19:17;19.27;;;5.10;;
70545;SDS011;58098;51.680;5.134;2024-03-23T03:21:43;18.43;;;4.73;;
70545;SDS011;58098;51.680;5.134;2024-03-23T03:24:08;22.07;;;5.27;;
70545;SDS011;58098;51.680;5.134;2024-03-23T03:26:34;22.70;;;4.73;;
70545;SDS011;58098;51.680;5.134;2024-03-23T03:28:59;18.53;;;4.57;;
70545;SDS011;58098;51.680;5.134;2024-03-23T03:31:24;17.87;;;4.27;;
70545;SDS011;58098;51.680;5.134;2024-03-23T03:33:49;19.67;;;5.10;;
70545;SDS011;58098;51.680;5.134;2024-03-23T03:36:16;21.02;;;4.82;;
70545;SDS011;58098;51.680;5.134;2024-03-23T03:38:41;28.83;;;5.20;;
70545;SDS011;58098;51.680;5.134;2024-03-23T03:41:07;23.13;;;5.40;;
70545;SDS011;58098;51.680;5.134;2024-03-23T03:43:32;20.40;;;5.77;;
70545;SDS011;58098;51.680;5.134;2024-03-23T03:45:58;28.05;;;6.00;;
70545;SDS011;58098;51.680;5.134;2024-03-23T03:48:25;17.10;;;4.73;;
70545;SDS011;58098;51.680;5.134;2024-03-23T03:50:50;17.73;;;5.20;;
70545;SDS011;58098;51.680;5.134;2024-03-23T03:53:16;22.60;;;5.47;;
70545;SDS011;58098;51.680;5.134;2024-03-23T03:55:42;18.27;;;5.32;;
70545;SDS011;58098;51.680;5.134;2024-03-23T03:58:07;24.53;;;5.60;;
70545;SDS011;58098;51.680;5.134;2024-03-23T04:00:32;16.77;;;5.07;;
70545;SDS011;58098;51.680;5.134;2024-03-23T04:02:58;21.77;;;5.80;;
70545;SDS011;58098;51.680;5.134;2024-03-23T04:05:23;17.83;;;5.60;;
70545;SDS011;58098;51.680;5.134;2024-03-23T04:07:49;14.98;;;5.65;;
70545;SDS011;58098;51.680;5.134;2024-03-23T04:10:14;21.37;;;5.57;;
70545;SDS011;58098;51.680;5.134;2024-03-23T04:12:40;22.10;;;5.43;;
70545;SDS011;58098;51.680;5.134;2024-03-23T04:15:09;21.63;;;6.38;;
70545;SDS011;58098;51.680;5.134;2024-03-23T04:17:35;20.77;;;5.53;;
70545;SDS011;58098;51.680;5.134;2024-03-23T04:20:01;26.57;;;6.20;;
70545;SDS011;58098;51.680;5.134;2024-03-23T04:22:28;17.58;;;5.47;;
70545;SDS011;58098;51.680;5.134;2024-03-23T04:24:54;22.83;;;6.40;;
70545;SDS011;58098;51.680;5.134;2024-03-23T04:27:20;20.00;;;5.75;;
70545;SDS011;58098;51.680;5.134;2024-03-23T04:29:48;15.73;;;5.33;;
70545;SDS011;58098;51.680;5.134;2024-03-23T04:32:15;24.38;;;5.90;;
70545;SDS011;58098;51.680;5.134;2024-03-23T04:34:41;24.02;;;5.82;;
70545;SDS011;58098;51.680;5.134;2024-03-23T04:37:06;23.53;;;5.50;;
70545;SDS011;58098;51.680;5.134;2024-03-23T04:39:32;29.02;;;6.30;;
70545;SDS011;58098;51.680;5.134;2024-03-23T04:41:58;20.63;;;6.17;;
70545;SDS011;58098;51.680;5.134;2024-03-23T04:44:23;27.40;;;7.07;;
70545;SDS011;58098;51.680;5.134;2024-03-23T04:46:48;19.60;;;6.00;;
70545;SDS011;58098;51.680;5.134;2024-03-23T04:49:13;25.87;;;6.27;;
70545;SDS011;58098;51.680;5.134;2024-03-23T04:51:39;26.88;;;5.95;;
70545;SDS011;58098;51.680;5.134;2024-03-23T04:54:06;26.63;;;5.63;;
70545;SDS011;58098;51.680;5.134;2024-03-23T04:56:32;23.80;;;5.68;;
70545;SDS011;58098;51.680;5.134;2024-03-23T04:58:58;23.80;;;5.63;;
70545;SDS011;58098;51.680;5.134;2024-03-23T05:01:26;26.30;;;5.85;;
70545;SDS011;58098;51.680;5.134;2024-03-23T05:03:52;22.65;;;5.85;;
70545;SDS011;58098;51.680;5.134;2024-03-23T05:06:18;25.40;;;6.20;;
70545;SDS011;58098;51.680;5.134;2024-03-23T05:08:43;18.05;;;5.47;;
70545;SDS011;58098;51.680;5.134;2024-03-23T05:11:08;24.63;;;5.67;;
70545;SDS011;58098;51.680;5.134;2024-03-23T05:13:34;27.20;;;6.37;;
70545;SDS011;58098;51.680;5.134;2024-03-23T05:15:59;22.23;;;5.83;;
70545;SDS011;58098;51.680;5.134;2024-03-23T05:18:24;17.07;;;5.23;;
70545;SDS011;58098;51.680;5.134;2024-03-23T05:20:55;28.98;;;5.97;;
70545;SDS011;58098;51.680;5.134;2024-03-23T05:23:22;26.55;;;5.80;;
70545;SDS011;58098;51.680;5.134;2024-03-23T05:25:47;28.63;;;5.10;;
70545;SDS011;58098;51.680;5.134;2024-03-23T05:28:13;30.80;;;5.57;;
70545;SDS011;58098;51.680;5.134;2024-03-23T05:30:38;16.10;;;4.90;;
70545;SDS011;58098;51.680;5.134;2024-03-23T05:33:05;21.95;;;5.40;;
70545;SDS011;58098;51.680;5.134;2024-03-23T05:35:30;25.80;;;6.53;;
70545;SDS011;58098;51.680;5.134;2024-03-23T05:37:55;21.63;;;5.80;;
70545;SDS011;58098;51.680;5.134;2024-03-23T05:40:21;18.90;;;5.00;;
70545;SDS011;58098;51.680;5.134;2024-03-23T05:42:46;18.53;;;4.93;;
70545;SDS011;58098;51.680;5.134;2024-03-23T05:45:11;23.77;;;5.60;;
70545;SDS011;58098;51.680;5.134;2024-03-23T05:47:37;23.43;;;5.13;;
70545;SDS011;58098;51.680;5.134;2024-03-23T05:50:03;17.33;;;5.30;;
70545;SDS011;58098;51.680;5.134;2024-03-23T05:52:28;16.87;;;4.70;;
70545;SDS011;58098;51.680;5.134;2024-03-23T05:54:54;24.60;;;5.53;;
70545;SDS011;58098;51.680;5.134;2024-03-23T05:57:20;24.40;;;5.37;;
70545;SDS011;58098;51.680;5.134;2024-03-23T05:59:45;19.65;;;5.20;;
70545;SDS011;58098;51.680;5.134;2024-03-23T06:02:11;25.37;;;6.03;;
70545;SDS011;58098;51.680;5.134;2024-03-23T06:04:36;28.83;;;6.87;;
70545;SDS011;58098;51.680;5.134;2024-03-23T06:07:02;25.17;;;5.77;;
70545;SDS011;58098;51.680;5.134;2024-03-23T06:09:27;21.60;;;5.55;;
70545;SDS011;58098;51.680;5.134;2024-03-23T06:11:56;28.88;;;6.38;;
70545;SDS011;58098;51.680;5.134;2024-03-23T06:14:21;27.17;;;5.73;;
70545;SDS011;58098;51.680;5.134;2024-03-23T06:16:47;18.27;;;5.13;;
70545;SDS011;58098;51.680;5.134;2024-03-23T06:19:12;27.80;;;4.77;;
70545;SDS011;58098;51.680;5.134;2024-03-23T06:21:38;29.20;;;4.90;;
70545;SDS011;58098;51.680;5.134;2024-03-23T06:24:08;21.05;;;4.80;;
70545;SDS011;58098;51.680;5.134;2024-03-23T06:26:33;15.20;;;3.97;;
70545;SDS011;58098;51.680;5.134;2024-03-23T06:28:59;14.30;;;4.23;;
70545;SDS011;58098;51.680;5.134;2024-03-23T06:31:24;23.57;;;5.00;;
70545;SDS011;58098;51.680;5.134;2024-03-23T06:33:49;17.87;;;4.27;;
70545;SDS011;58098;51.680;5.134;2024-03-23T06:36:14;16.37;;;3.93;;
70545;SDS011;58098;51.680;5.134;2024-03-23T06:38:40;26.17;;;5.40;;
70545;SDS011;58098;51.680;5.134;2024-03-23T06:41:05;18.83;;;4.50;;
70545;SDS011;58098;51.680;5.134;2024-03-23T06:43:31;26.27;;;5.00;;
70545;SDS011;58098;51.680;5.134;2024-03-23T06:45:56;17.27;;;4.33;;
70545;SDS011;58098;51.680;5.134;2024-03-23T06:48:21;24.40;;;3.95;;
70545;SDS011;58098;51.680;5.134;2024-03-23T06:50:47;15.13;;;3.73;;
70545;SDS011;58098;51.680;5.134;2024-03-23T06:53:13;18.93;;;4.07;;
70545;SDS011;58098;51.680;5.134;2024-03-23T06:55:39;19.67;;;4.10;;
70545;SDS011;58098;51.680;5.134;2024-03-23T06:58:04;17.30;;;3.77;;
70545;SDS011;58098;51.680;5.134;2024-03-23T07:00:30;15.67;;;3.57;;
70545;SDS011;58098;51.680;5.134;2024-03-23T07:02:55;15.43;;;3.78;;
70545;SDS011;58098;51.680;5.134;2024-03-23T07:05:20;24.53;;;3.93;;
70545;SDS011;58098;51.680;5.134;2024-03-23T07:07:46;14.50;;;4.07;;
70545;SDS011;58098;51.680;5.134;2024-03-23T07:10:11;10.93;;;4.00;;
70545;SDS011;58098;51.680;5.134;2024-03-23T07:12:37;11.05;;;3.60;;
70545;SDS011;58098;51.680;5.134;2024-03-23T07:15:02;15.57;;;3.97;;
70545;SDS011;58098;51.680;5.134;2024-03-23T07:17:28;24.63;;;4.30;;
70545;SDS011;58098;51.680;5.134;2024-03-23T07:19:53;24.23;;;4.43;;
70545;SDS011;58098;51.680;5.134;2024-03-23T07:22:18;17.83;;;4.53;;
70545;SDS011;58098;51.680;5.134;2024-03-23T07:24:44;23.70;;;4.65;;
70545;SDS011;58098;51.680;5.134;2024-03-23T07:27:09;20.70;;;4.80;;
70545;SDS011;58098;51.680;5.134;2024-03-23T07:29:37;19.27;;;4.70;;
70545;SDS011;58098;51.680;5.134;2024-03-23T07:32:02;20.57;;;4.17;;
70545;SDS011;58098;51.680;5.134;2024-03-23T07:34:28;15.63;;;4.77;;
70545;SDS011;58098;51.680;5.134;2024-03-23T07:36:53;20.40;;;5.20;;
70545;SDS011;58098;51.680;5.134;2024-03-23T07:39:18;17.07;;;4.17;;
70545;SDS011;58098;51.680;5.134;2024-03-23T07:41:44;16.20;;;4.40;;
70545;SDS011;58098;51.680;5.134;2024-03-23T07:44:10;20.88;;;5.15;;
70545;SDS011;58098;51.680;5.134;2024-03-23T07:46:35;19.43;;;4.37;;
70545;SDS011;58098;51.680;5.134;2024-03-23T07:49:01;9.50;;;3.95;;
70545;SDS011;58098;51.680;5.134;2024-03-23T07:51:26;16.33;;;3.87;;
70545;SDS011;58098;51.680;5.134;2024-03-23T07:53:52;18.23;;;4.17;;
70545;SDS011;58098;51.680;5.134;2024-03-23T07:56:18;17.13;;;3.83;;
70545;SDS011;58098;51.680;5.134;2024-03-23T07:58:44;18.33;;;3.78;;
70545;SDS011;58098;51.680;5.134;2024-03-23T08:01:15;14.03;;;3.67;;
70545;SDS011;58098;51.680;5.134;2024-03-23T08:03:42;15.85;;;3.50;;
70545;SDS011;58098;51.680;5.134;2024-03-23T08:06:17;14.85;;;3.90;;
70545;SDS011;58098;51.680;5.134;2024-03-23T08:08:49;17.17;;;3.17;;
70545;SDS011;58098;51.680;5.134;2024-03-23T08:11:16;10.57;;;2.78;;
70545;SDS011;58098;51.680;5.134;2024-03-23T08:13:42;11.30;;;2.80;;
70545;SDS011;58098;51.680;5.134;2024-03-23T08:16:09;12.23;;;2.92;;
70545;SDS011;58098;51.680;5.134;2024-03-23T08:18:35;18.88;;;3.28;;
70545;SDS011;58098;51.680;5.134;2024-03-23T08:21:04;15.00;;;3.27;;
70545;SDS011;58098;51.680;5.134;2024-03-23T08:23:31;12.17;;;3.00;;
70545;SDS011;58098;51.680;5.134;2024-03-23T08:26:05;17.95;;;2.90;;
70545;SDS011;58098;51.680;5.134;2024-03-23T08:28:31;11.55;;;2.75;;
70545;SDS011;58098;51.680;5.134;2024-03-23T08:31:00;15.90;;;3.10;;
70545;SDS011;58098;51.680;5.134;2024-03-23T08:33:27;9.18;;;3.13;;
70545;SDS011;58098;51.680;5.134;2024-03-23T08:35:56;15.17;;;4.40;;
70545;SDS011;58098;51.680;5.134;2024-03-23T08:38:23;15.43;;;2.92;;
70545;SDS011;58098;51.680;5.134;2024-03-23T08:40:56;14.47;;;3.80;;
70545;SDS011;58098;51.680;5.134;2024-03-23T08:43:25;12.40;;;3.08;;
70545;SDS011;58098;51.680;5.134;2024-03-23T08:45:51;10.45;;;2.55;;
70545;SDS011;58098;51.680;5.134;2024-03-23T08:48:16;11.02;;;2.80;;
70545;SDS011;58098;51.680;5.134;2024-03-23T08:50:43;16.10;;;2.75;;
70545;SDS011;58098;51.680;5.134;2024-03-23T08:53:08;11.53;;;2.93;;
70545;SDS011;58098;51.680;5.134;2024-03-23T08:55:33;11.63;;;2.67;;
70545;SDS011;58098;51.680;5.134;2024-03-23T08:57:59;12.90;;;2.87;;
70545;SDS011;58098;51.680;5.134;2024-03-23T09:00:25;16.08;;;2.65;;
70545;SDS011;58098;51.680;5.134;2024-03-23T09:02:50;7.60;;;2.73;;
70545;SDS011;58098;51.680;5.134;2024-03-23T09:05:16;13.07;;;2.60;;
70545;SDS011;58098;51.680;5.134;2024-03-23T09:07:41;8.27;;;2.23;;
70545;SDS011;58098;51.680;5.134;2024-03-23T09:10:07;13.53;;;2.93;;
70545;SDS011;58098;51.680;5.134;2024-03-23T09:12:32;10.45;;;2.40;;
70545;SDS011;58098;51.680;5.134;2024-03-23T09:14:58;12.23;;;2.70;;
70545;SDS011;58098;51.680;5.134;2024-03-23T09:17:23;10.03;;;3.03;;
70545;SDS011;58098;51.680;5.134;2024-03-23T09:19:48;7.17;;;2.73;;
70545;SDS011;58098;51.680;5.134;2024-03-23T09:22:14;6.10;;;2.00;;
70545;SDS011;58098;51.680;5.134;2024-03-23T09:24:39;10.70;;;3.47;;
70545;SDS011;58098;51.680;5.134;2024-03-23T09:27:05;4.75;;;2.38;;
70545;SDS011;58098;51.680;5.134;2024-03-23T09:29:31;8.53;;;3.13;;
70545;SDS011;58098;51.680;5.134;2024-03-23T09:31:56;12.23;;;2.87;;
70545;SDS011;58098;51.680;5.134;2024-03-23T09:34:22;8.13;;;2.80;;
70545;SDS011;58098;51.680;5.134;2024-03-23T09:36:50;10.00;;;2.80;;
70545;SDS011;58098;51.680;5.134;2024-03-23T09:39:16;10.80;;;2.60;;
70545;SDS011;58098;51.680;5.134;2024-03-23T09:41:42;10.90;;;2.73;;
70545;SDS011;58098;51.680;5.134;2024-03-23T09:44:07;11.00;;;2.27;;
70545;SDS011;58098;51.680;5.134;2024-03-23T09:46:33;15.53;;;3.20;;
70545;SDS011;58098;51.680;5.134;2024-03-23T09:49:01;10.10;;;3.85;;
70545;SDS011;58098;51.680;5.134;2024-03-23T09:51:29;10.77;;;2.70;;
70545;SDS011;58098;51.680;5.134;2024-03-23T09:53:55;10.48;;;3.20;;
70545;SDS011;58098;51.680;5.134;2024-03-23T09:56:21;13.83;;;3.23;;
70545;SDS011;58098;51.680;5.134;2024-03-23T09:58:46;8.80;;;3.05;;
70545;SDS011;58098;51.680;5.134;2024-03-23T10:01:12;10.53;;;2.20;;
70545;SDS011;58098;51.680;5.134;2024-03-23T10:03:44;9.83;;;2.60;;
70545;SDS011;58098;51.680;5.134;2024-03-23T10:06:12;7.88;;;2.60;;
70545;SDS011;58098;51.680;5.134;2024-03-23T10:08:37;8.00;;;2.30;;
70545;SDS011;58098;51.680;5.134;2024-03-23T10:11:12;9.60;;;2.60;;
70545;SDS011;58098;51.680;5.134;2024-03-23T10:13:41;10.73;;;3.00;;
70545;SDS011;58098;51.680;5.134;2024-03-23T10:16:11;12.75;;;2.60;;
70545;SDS011;58098;51.680;5.134;2024-03-23T10:18:37;14.70;;;3.00;;
70545;SDS011;58098;51.680;5.134;2024-03-23T10:23:32;11.13;;;2.83;;
70545;SDS011;58098;51.680;5.134;2024-03-23T10:26:17;14.70;;;2.85;;
70545;SDS011;58098;51.680;5.134;2024-03-23T10:29:17;13.05;;;2.55;;
70545;SDS011;58098;51.680;5.134;2024-03-23T10:31:37;8.10;;;2.23;;
70545;SDS011;58098;51.680;5.134;2024-03-23T10:34:06;8.90;;;2.42;;
70545;SDS011;58098;51.680;5.134;2024-03-23T10:36:32;12.35;;;2.50;;
70545;SDS011;58098;51.680;5.134;2024-03-23T10:38:59;12.68;;;3.03;;
70545;SDS011;58098;51.680;5.134;2024-03-23T10:41:28;13.83;;;2.63;;
70545;SDS011;58098;51.680;5.134;2024-03-23T10:43:54;9.05;;;2.40;;
70545;SDS011;58098;51.680;5.134;2024-03-23T10:46:21;9.50;;;2.20;;
70545;SDS011;58098;51.680;5.134;2024-03-23T10:48:46;7.23;;;2.33;;
70545;SDS011;58098;51.680;5.134;2024-03-23T10:51:12;11.03;;;2.33;;
70545;SDS011;58098;51.680;5.134;2024-03-23T10:53:39;9.27;;;2.33;;
70545;SDS011;58098;51.680;5.134;2024-03-23T10:56:05;5.60;;;1.90;;
70545;SDS011;58098;51.680;5.134;2024-03-23T10:58:41;6.28;;;2.25;;
70545;SDS011;58098;51.680;5.134;2024-03-23T11:01:12;6.90;;;2.35;;
70545;SDS011;58098;51.680;5.134;2024-03-23T11:03:38;4.80;;;1.85;;
70545;SDS011;58098;51.680;5.134;2024-03-23T11:06:05;5.50;;;2.13;;
70545;SDS011;58098;51.680;5.134;2024-03-23T11:08:38;7.07;;;2.27;;
70545;SDS011;58098;51.680;5.134;2024-03-23T11:11:11;8.85;;;2.20;;
70545;SDS011;58098;51.680;5.134;2024-03-23T11:13:44;12.02;;;2.55;;
70545;SDS011;58098;51.680;5.134;2024-03-23T11:16:13;6.43;;;2.17;;
70545;SDS011;58098;51.680;5.134;2024-03-23T11:18:39;8.38;;;2.55;;
70545;SDS011;58098;51.680;5.134;2024-03-23T11:21:06;7.77;;;2.43;;
70545;SDS011;58098;51.680;5.134;2024-03-23T11:23:32;8.27;;;2.35;;
70545;SDS011;58098;51.680;5.134;2024-03-23T11:25:57;7.90;;;2.70;;
70545;SDS011;58098;51.680;5.134;2024-03-23T11:28:22;10.90;;;2.47;;
70545;SDS011;58098;51.680;5.134;2024-03-23T11:30:48;14.30;;;3.27;;
70545;SDS011;58098;51.680;5.134;2024-03-23T11:33:13;10.53;;;3.00;;
70545;SDS011;58098;51.680;5.134;2024-03-23T11:35:39;12.80;;;2.95;;
70545;SDS011;58098;51.680;5.134;2024-03-23T11:38:12;10.20;;;3.08;;
70545;SDS011;58098;51.680;5.134;2024-03-23T11:40:39;12.50;;;3.20;;
70545;SDS011;58098;51.680;5.134;2024-03-23T11:43:09;6.25;;;2.50;;
70545;SDS011;58098;51.680;5.134;2024-03-23T11:45:43;15.38;;;2.83;;
70545;SDS011;58098;51.680;5.134;2024-03-23T11:48:14;11.70;;;2.55;;
70545;SDS011;58098;51.680;5.134;2024-03-23T11:50:44;15.15;;;3.10;;
70545;SDS011;58098;51.680;5.134;2024-03-23T11:55:40;9.50;;;2.53;;
70545;SDS011;58098;51.680;5.134;2024-03-23T11:58:08;6.68;;;2.30;;
70545;SDS011;58098;51.680;5.134;2024-03-23T12:00:34;13.43;;;2.70;;
70545;SDS011;58098;51.680;5.134;2024-03-23T12:03:00;12.15;;;2.65;;
70545;SDS011;58098;51.680;5.134;2024-03-23T12:05:29;7.63;;;3.08;;
70545;SDS011;58098;51.680;5.134;2024-03-23T12:07:55;9.00;;;2.60;;
70545;SDS011;58098;51.680;5.134;2024-03-23T12:10:20;9.67;;;2.57;;
70545;SDS011;58098;51.680;5.134;2024-03-23T12:12:46;12.43;;;3.15;;
70545;SDS011;58098;51.680;5.134;2024-03-23T12:15:22;12.57;;;2.87;;
70545;SDS011;58098;51.680;5.134;2024-03-23T12:17:48;10.70;;;3.10;;
70545;SDS011;58098;51.680;5.134;2024-03-23T12:20:13;9.93;;;2.70;;
70545;SDS011;58098;51.680;5.134;2024-03-23T12:22:38;15.03;;;3.30;;
70545;SDS011;58098;51.680;5.134;2024-03-23T12:25:03;8.83;;;2.20;;
70545;SDS011;58098;51.680;5.134;2024-03-23T12:27:29;7.13;;;2.57;;
70545;SDS011;58098;51.680;5.134;2024-03-23T12:29:54;10.43;;;2.60;;
70545;SDS011;58098;51.680;5.134;2024-03-23T12:32:19;13.60;;;2.50;;
70545;SDS011;58098;51.680;5.134;2024-03-23T12:34:45;8.68;;;2.40;;
70545;SDS011;58098;51.680;5.134;2024-03-23T12:37:12;7.97;;;2.20;;
70545;SDS011;58098;51.680;5.134;2024-03-23T12:39:37;4.67;;;2.20;;
70545;SDS011;58098;51.680;5.134;2024-03-23T12:42:03;10.07;;;2.27;;
70545;SDS011;58098;51.680;5.134;2024-03-23T12:44:29;10.55;;;2.10;;
70545;SDS011;58098;51.680;5.134;2024-03-23T12:46:54;5.93;;;1.90;;
70545;SDS011;58098;51.680;5.134;2024-03-23T12:49:19;4.10;;;2.03;;
70545;SDS011;58098;51.680;5.134;2024-03-23T12:51:52;4.80;;;1.70;;
70545;SDS011;58098;51.680;5.134;2024-03-23T12:54:20;5.47;;;2.28;;
70545;SDS011;58098;51.680;5.134;2024-03-23T12:56:45;4.87;;;1.80;;
70545;SDS011;58098;51.680;5.134;2024-03-23T12:59:11;5.40;;;1.95;;
70545;SDS011;58098;51.680;5.134;2024-03-23T13:01:37;8.45;;;2.30;;
70545;SDS011;58098;51.680;5.134;2024-03-23T13:04:03;7.43;;;1.97;;
70545;SDS011;58098;51.680;5.134;2024-03-23T13:06:28;4.53;;;2.30;;
70545;SDS011;58098;51.680;5.134;2024-03-23T13:08:58;10.20;;;2.20;;
70545;SDS011;58098;51.680;5.134;2024-03-23T13:11:24;4.23;;;1.90;;
70545;SDS011;58098;51.680;5.134;2024-03-23T13:13:50;10.25;;;2.28;;
70545;SDS011;58098;51.680;5.134;2024-03-23T13:16:16;10.70;;;2.20;;
70545;SDS011;58098;51.680;5.134;2024-03-23T13:18:41;7.30;;;2.30;;
70545;SDS011;58098;51.680;5.134;2024-03-23T13:21:06;4.63;;;1.83;;
70545;SDS011;58098;51.680;5.134;2024-03-23T13:23:32;8.97;;;2.50;;
70545;SDS011;58098;51.680;5.134;2024-03-23T13:25:59;8.10;;;2.40;;
70545;SDS011;58098;51.680;5.134;2024-03-23T13:28:24;8.20;;;2.03;;
70545;SDS011;58098;51.680;5.134;2024-03-23T13:30:53;7.37;;;2.10;;
70545;SDS011;58098;51.680;5.134;2024-03-23T13:33:19;7.53;;;2.25;;
70545;SDS011;58098;51.680;5.134;2024-03-23T13:35:51;9.00;;;2.60;;
70545;SDS011;58098;51.680;5.134;2024-03-23T13:38:21;11.30;;;2.60;;
70545;SDS011;58098;51.680;5.134;2024-03-23T13:40:50;9.13;;;2.20;;
70545;SDS011;58098;51.680;5.134;2024-03-23T13:43:19;18.73;;;3.25;;
70545;SDS011;58098;51.680;5.134;2024-03-23T13:45:46;11.15;;;2.40;;
70545;SDS011;58098;51.680;5.134;2024-03-23T13:48:13;10.10;;;2.60;;
70545;SDS011;58098;51.680;5.134;2024-03-23T13:50:38;11.13;;;2.47;;
70545;SDS011;58098;51.680;5.134;2024-03-23T13:53:03;9.77;;;2.30;;
70545;SDS011;58098;51.680;5.134;2024-03-23T13:55:29;10.23;;;2.67;;
70545;SDS011;58098;51.680;5.134;2024-03-23T13:57:54;9.00;;;2.90;;
70545;SDS011;58098;51.680;5.134;2024-03-23T14:00:19;12.40;;;2.27;;
70545;SDS011;58098;51.680;5.134;2024-03-23T14:02:45;27.43;;;4.27;;
70545;SDS011;58098;51.680;5.134;2024-03-23T14:05:23;15.27;;;2.67;;
70545;SDS011;58098;51.680;5.134;2024-03-23T14:07:50;5.65;;;1.90;;
70545;SDS011;58098;51.680;5.134;2024-03-23T14:10:15;10.23;;;2.70;;
70545;SDS011;58098;51.680;5.134;2024-03-23T14:12:51;7.10;;;2.10;;
70545;SDS011;58098;51.680;5.134;2024-03-23T14:15:16;8.70;;;2.20;;
70545;SDS011;58098;51.680;5.134;2024-03-23T14:17:43;9.30;;;2.08;;
70545;SDS011;58098;51.680;5.134;2024-03-23T14:20:08;7.47;;;1.90;;
70545;SDS011;58098;51.680;5.134;2024-03-23T14:22:36;5.32;;;2.03;;
70545;SDS011;58098;51.680;5.134;2024-03-23T14:25:01;10.80;;;2.70;;
70545;SDS011;58098;51.680;5.134;2024-03-23T14:27:27;15.80;;;2.87;;
70545;SDS011;58098;51.680;5.134;2024-03-23T14:29:52;7.40;;;2.43;;
70545;SDS011;58098;51.680;5.134;2024-03-23T14:32:17;4.50;;;1.80;;
70545;SDS011;58098;51.680;5.134;2024-03-23T14:34:43;4.30;;;1.80;;
70545;SDS011;58098;51.680;5.134;2024-03-23T14:37:08;2.63;;;1.80;;
70545;SDS011;58098;51.680;5.134;2024-03-23T14:39:33;5.87;;;1.90;;
70545;SDS011;58098;51.680;5.134;2024-03-23T14:42:04;5.35;;;1.83;;
70545;SDS011;58098;51.680;5.134;2024-03-23T14:44:30;3.17;;;1.70;;
70545;SDS011;58098;51.680;5.134;2024-03-23T14:46:55;5.70;;;1.90;;
70545;SDS011;58098;51.680;5.134;2024-03-23T14:49:21;5.85;;;1.85;;
70545;SDS011;58098;51.680;5.134;2024-03-23T14:51:46;5.33;;;2.10;;
70545;SDS011;58098;51.680;5.134;2024-03-23T14:54:11;16.03;;;2.83;;
70545;SDS011;58098;51.680;5.134;2024-03-23T14:56:38;6.00;;;2.13;;
70545;SDS011;58098;51.680;5.134;2024-03-23T14:59:03;4.33;;;1.93;;
70545;SDS011;58098;51.680;5.134;2024-03-23T15:01:29;3.63;;;1.57;;
70545;SDS011;58098;51.680;5.134;2024-03-23T15:03:54;2.57;;;1.47;;
70545;SDS011;58098;51.680;5.134;2024-03-23T15:06:19;1.93;;;1.73;;
70545;SDS011;58098;51.680;5.134;2024-03-23T15:08:45;1.40;;;1.30;;
70545;SDS011;58098;51.680;5.134;2024-03-23T15:11:10;1.60;;;1.50;;
70545;SDS011;58098;51.680;5.134;2024-03-23T15:13:36;2.33;;;1.47;;
70545;SDS011;58098;51.680;5.134;2024-03-23T15:16:02;3.53;;;1.58;;
70545;SDS011;58098;51.680;5.134;2024-03-23T15:18:32;2.30;;;1.23;;
70545;SDS011;58098;51.680;5.134;2024-03-23T15:21:01;1.50;;;1.38;;
70545;SDS011;58098;51.680;5.134;2024-03-23T15:23:31;3.15;;;1.80;;
70545;SDS011;58098;51.680;5.134;2024-03-23T15:26:00;2.90;;;1.55;;
70545;SDS011;58098;51.680;5.134;2024-03-23T15:28:26;1.90;;;1.60;;
70545;SDS011;58098;51.680;5.134;2024-03-23T15:31:03;3.23;;;1.40;;